createdAt,value
2022-10-21T00:01:28.340Z,18.53
2022-10-21T00:03:57.711Z,17.67
2022-10-21T00:06:27.987Z,12.27
2022-10-21T00:08:57.199Z,33.07
2022-10-21T00:11:25.733Z,13.93
2022-10-21T00:13:54.218Z,10.83
2022-10-21T00:16:23.849Z,16.10
2022-10-21T00:18:52.353Z,15.90
2022-10-21T00:21:24.109Z,10.80
2022-10-21T00:23:54.815Z,21.37
2022-10-21T00:26:23.367Z,12.60
2022-10-21T00:28:57.759Z,18.30
2022-10-21T00:31:27.759Z,26.70
2022-10-21T00:33:56.950Z,34.27
2022-10-21T00:36:25.416Z,27.43
2022-10-21T00:38:55.320Z,66.37
2022-10-21T00:41:23.880Z,54.37
2022-10-21T00:44:03.741Z,49.20
2022-10-21T00:46:41.425Z,34.70
2022-10-21T00:49:19.183Z,73.10
2022-10-21T00:51:55.154Z,74.17
2022-10-21T00:54:27.531Z,55.60
2022-10-21T00:56:58.151Z,66.90
2022-10-21T00:59:33.114Z,64.63
2022-10-21T01:02:02.569Z,59.30
2022-10-21T01:04:31.893Z,24.60
2022-10-21T01:07:03.244Z,33.27
2022-10-21T01:09:33.610Z,42.27
2022-10-21T01:12:06.230Z,25.63
2022-10-21T01:14:57.397Z,33.03
2022-10-21T01:17:45.618Z,14.13
2022-10-21T01:20:57.402Z,17.40
2022-10-21T01:24:16.867Z,22.07
2022-10-21T01:27:14.914Z,19.03
2022-10-21T01:30:17.026Z,36.70
2022-10-21T01:33:06.482Z,46.53
2022-10-21T01:35:45.993Z,28.17
2022-10-21T01:38:26.848Z,27.43
2022-10-21T01:41:03.470Z,34.13
2022-10-21T01:43:42.596Z,56.87
2022-10-21T01:46:17.109Z,34.17
2022-10-21T01:48:57.795Z,26.70
2022-10-21T01:51:29.635Z,25.77
2022-10-21T01:54:06.671Z,18.13
2022-10-21T01:56:36.214Z,18.47
2022-10-21T01:59:07.697Z,35.83
2022-10-21T02:01:40.689Z,12.23
2022-10-21T02:04:16.555Z,32.33
2022-10-21T02:06:45.502Z,12.33
2022-10-21T02:09:14.191Z,26.80
2022-10-21T02:11:48.327Z,8.20
2022-10-21T02:14:24.671Z,18.33
2022-10-21T02:16:56.037Z,8.27
2022-10-21T02:19:27.318Z,5.97
2022-10-21T02:22:03.057Z,6.37
2022-10-21T02:24:40.214Z,11.93
2022-10-21T02:27:09.837Z,5.17
2022-10-21T02:29:43.522Z,6.57
2022-10-21T02:32:27.914Z,8.37
2022-10-21T02:35:18.656Z,9.30
2022-10-21T02:38:00.950Z,11.93
2022-10-21T02:40:38.650Z,7.73
2022-10-21T02:43:13.041Z,9.10
2022-10-21T02:45:42.336Z,4.33
2022-10-21T02:48:10.869Z,5.50
2022-10-21T02:50:40.884Z,11.00
2022-10-21T02:53:12.294Z,11.30
2022-10-21T02:55:41.327Z,17.43
2022-10-21T02:58:09.903Z,19.23
2022-10-21T03:00:39.791Z,15.93
2022-10-21T03:03:08.215Z,11.97
2022-10-21T03:05:37.208Z,19.57
2022-10-21T03:08:07.932Z,28.30
2022-10-21T03:10:36.940Z,20.77
2022-10-21T03:13:06.072Z,15.43
2022-10-21T03:15:35.017Z,14.83
2022-10-21T03:18:03.480Z,15.23
2022-10-21T03:20:32.993Z,16.73
2022-10-21T03:23:01.992Z,22.53
2022-10-21T03:25:35.523Z,24.13
2022-10-21T03:28:07.128Z,74.73
2022-10-21T03:30:37.214Z,26.67
2022-10-21T03:33:06.183Z,24.63
2022-10-21T03:35:36.064Z,16.47
2022-10-21T03:38:04.671Z,25.43
2022-10-21T03:40:35.638Z,23.30
2022-10-21T03:43:04.828Z,8.53
2022-10-21T03:45:35.058Z,5.57
2022-10-21T03:48:04.145Z,23.50
2022-10-21T03:50:33.097Z,15.80
2022-10-21T03:53:09.897Z,36.00
2022-10-21T03:55:43.969Z,20.73
2022-10-21T03:58:13.541Z,21.90
2022-10-21T04:00:42.908Z,20.73
2022-10-21T04:03:12.217Z,7.50
2022-10-21T04:05:41.017Z,16.60
2022-10-21T04:08:09.498Z,12.30
2022-10-21T04:10:39.138Z,14.60
2022-10-21T04:13:09.218Z,7.67
2022-10-21T04:15:38.499Z,29.17
2022-10-21T04:18:09.153Z,18.50
2022-10-21T04:20:39.548Z,17.30
2022-10-21T04:23:08.306Z,17.17
2022-10-21T04:25:37.131Z,12.50
2022-10-21T04:28:06.156Z,36.43
2022-10-21T04:30:37.406Z,7.43
2022-10-21T04:33:06.593Z,16.00
2022-10-21T04:35:37.120Z,16.33
2022-10-21T04:38:05.948Z,15.83
2022-10-21T04:40:35.059Z,7.03
2022-10-21T04:43:05.258Z,13.80
2022-10-21T04:45:39.600Z,9.27
2022-10-21T04:48:11.133Z,10.53
2022-10-21T04:50:41.058Z,7.57
2022-10-21T04:53:10.023Z,11.13
2022-10-21T04:55:41.532Z,12.33
2022-10-21T04:58:10.527Z,17.03
2022-10-21T05:00:41.284Z,9.27
2022-10-21T05:03:11.631Z,9.57
2022-10-21T05:05:40.815Z,8.27
2022-10-21T05:08:11.659Z,10.00
2022-10-21T05:10:42.217Z,6.83
2022-10-21T05:13:12.157Z,13.33
2022-10-21T05:15:42.507Z,7.40
2022-10-21T05:18:11.597Z,8.00
2022-10-21T05:20:40.236Z,12.27
2022-10-21T05:23:09.600Z,6.03
2022-10-21T05:25:39.327Z,9.63
2022-10-21T05:28:07.929Z,9.30
2022-10-21T05:30:36.695Z,9.63
2022-10-21T05:33:08.209Z,7.03
2022-10-21T05:35:38.565Z,8.60
2022-10-21T05:38:08.358Z,9.07
2022-10-21T05:40:37.553Z,11.13
2022-10-21T05:43:06.360Z,11.63
2022-10-21T05:45:36.187Z,14.03
2022-10-21T05:48:08.118Z,11.97
2022-10-21T05:50:37.242Z,13.57
2022-10-21T05:53:06.805Z,8.87
2022-10-21T05:55:35.832Z,8.97
2022-10-21T05:58:04.406Z,11.13
2022-10-21T06:00:33.628Z,9.83
2022-10-21T06:03:03.211Z,8.43
2022-10-21T06:05:35.667Z,14.50
2022-10-21T06:08:04.426Z,10.37
2022-10-21T06:10:33.400Z,10.17
2022-10-21T06:13:02.822Z,10.83
2022-10-21T06:15:32.384Z,17.40
2022-10-21T06:18:01.569Z,5.90
2022-10-21T06:20:31.532Z,9.43
2022-10-21T06:23:03.214Z,6.17
2022-10-21T06:25:32.738Z,12.27
2022-10-21T06:28:02.458Z,9.10
2022-10-21T06:30:31.530Z,7.97
2022-10-21T06:33:00.210Z,6.57
2022-10-21T06:35:29.393Z,7.50
2022-10-21T06:37:58.214Z,13.63
2022-10-21T06:40:30.261Z,12.00
2022-10-21T06:42:59.440Z,10.60
2022-10-21T06:45:28.302Z,10.27
2022-10-21T06:47:57.798Z,14.63
2022-10-21T06:50:27.757Z,17.43
2022-10-21T06:52:56.615Z,10.23
2022-10-21T06:55:25.311Z,6.37
2022-10-21T06:57:55.972Z,8.60
2022-10-21T07:00:25.183Z,13.10
2022-10-21T07:02:53.996Z,11.17
2022-10-21T07:05:22.858Z,7.03
2022-10-21T07:07:52.497Z,8.70
2022-10-21T07:10:21.747Z,15.77
2022-10-21T07:12:50.694Z,17.87
2022-10-21T07:15:21.112Z,13.43
2022-10-21T07:17:50.949Z,10.67
2022-10-21T07:20:19.480Z,10.10
2022-10-21T07:22:48.162Z,13.20
2022-10-21T07:25:17.379Z,13.30
2022-10-21T07:27:48.281Z,8.00
2022-10-21T07:30:18.241Z,5.03
2022-10-21T07:32:48.669Z,8.40
2022-10-21T07:35:17.853Z,6.30
2022-10-21T07:37:47.236Z,9.13
2022-10-21T07:40:15.890Z,18.47
2022-10-21T07:42:44.476Z,19.93
2022-10-21T07:45:13.667Z,7.10
2022-10-21T07:47:42.406Z,4.17
2022-10-21T07:50:14.698Z,8.33
2022-10-21T07:52:54.686Z,19.13
2022-10-21T07:55:32.769Z,13.53
2022-10-21T07:58:03.518Z,2.67
2022-10-21T08:00:33.276Z,12.30
2022-10-21T08:03:02.838Z,4.63
2022-10-21T08:05:33.005Z,5.03
2022-10-21T08:08:02.817Z,4.63
2022-10-21T08:10:31.614Z,11.00
2022-10-21T08:13:00.422Z,3.73
2022-10-21T08:15:29.273Z,3.30
2022-10-21T08:17:58.506Z,5.13
2022-10-21T08:20:27.519Z,8.77
2022-10-21T08:22:58.805Z,11.03
2022-10-21T08:25:30.226Z,3.70
2022-10-21T08:27:59.022Z,12.03
2022-10-21T08:30:30.129Z,4.90
2022-10-21T08:32:59.475Z,4.67
2022-10-21T08:35:28.236Z,7.70
2022-10-21T08:37:58.637Z,5.07
2022-10-21T08:40:30.701Z,10.17
2022-10-21T08:43:10.130Z,6.73
2022-10-21T08:45:46.407Z,8.63
2022-10-21T08:48:26.822Z,9.03
2022-10-21T08:51:00.496Z,5.00
2022-10-21T08:53:40.911Z,7.93
2022-10-21T08:56:19.829Z,3.00
2022-10-21T08:58:54.184Z,6.20
2022-10-21T09:01:36.397Z,14.43
2022-10-21T09:04:17.275Z,8.33
2022-10-21T09:06:59.479Z,5.80
2022-10-21T09:09:42.966Z,4.97
2022-10-21T09:12:26.351Z,5.33
2022-10-21T09:15:24.570Z,4.63
2022-10-21T09:18:21.435Z,10.10
2022-10-21T09:21:03.332Z,10.50
2022-10-21T09:23:54.116Z,9.90
2022-10-21T09:26:42.864Z,9.50
2022-10-21T09:29:33.339Z,5.30
2022-10-21T09:32:16.182Z,5.37
2022-10-21T09:34:56.845Z,10.80
2022-10-21T09:37:37.046Z,8.00
2022-10-21T09:40:18.614Z,8.33
2022-10-21T09:42:55.733Z,14.80
2022-10-21T09:45:34.350Z,4.83
2022-10-21T09:48:08.309Z,6.03
2022-10-21T09:50:39.207Z,5.70
2022-10-21T09:53:20.377Z,4.03
2022-10-21T09:56:01.318Z,3.83
2022-10-21T09:58:50.048Z,1.73
2022-10-21T10:01:23.441Z,3.43
2022-10-21T10:03:54.736Z,3.97
2022-10-21T10:06:36.731Z,3.53
2022-10-21T10:09:16.892Z,3.67
2022-10-21T10:11:56.329Z,3.57
2022-10-21T10:14:34.874Z,3.17
2022-10-21T10:17:34.218Z,4.10
2022-10-21T10:20:17.589Z,2.07
2022-10-21T10:22:48.840Z,2.70
2022-10-21T10:25:24.414Z,3.53
2022-10-21T10:27:55.724Z,5.87
2022-10-21T10:30:31.958Z,4.67
2022-10-21T10:33:12.362Z,4.27
2022-10-21T10:35:48.927Z,2.60
2022-10-21T10:38:26.791Z,3.53
2022-10-21T10:40:57.839Z,10.93
2022-10-21T10:43:34.289Z,5.50
2022-10-21T10:46:10.344Z,6.10
2022-10-21T10:48:44.628Z,6.03
2022-10-21T10:51:28.890Z,2.20
2022-10-21T10:54:16.648Z,2.60
2022-10-21T10:56:53.168Z,1.73
2022-10-21T10:59:38.615Z,1.63
2022-10-21T11:02:30.085Z,2.20
2022-10-21T11:05:24.738Z,2.30
2022-10-21T11:07:56.435Z,4.33
2022-10-21T11:10:35.645Z,3.87
2022-10-21T11:13:11.191Z,4.53
2022-10-21T11:16:11.551Z,4.23
2022-10-21T11:18:49.959Z,3.87
2022-10-21T11:21:43.853Z,1.67
2022-10-21T11:24:41.255Z,2.87
2022-10-21T11:27:22.273Z,7.77
2022-10-21T11:30:03.747Z,2.07
2022-10-21T11:32:54.726Z,3.57
2022-10-21T11:35:43.462Z,4.40
2022-10-21T11:38:39.890Z,2.07
2022-10-21T11:41:27.953Z,3.30
2022-10-21T11:44:16.420Z,2.67
2022-10-21T11:47:02.884Z,3.77
2022-10-21T11:49:50.031Z,4.97
2022-10-21T11:52:39.396Z,2.63
2022-10-21T11:55:32.650Z,4.03
2022-10-21T11:58:15.559Z,1.80
2022-10-21T12:00:59.264Z,4.70
2022-10-21T12:03:54.600Z,6.40
2022-10-21T12:06:35.536Z,2.50
2022-10-21T12:09:14.907Z,2.20
2022-10-21T12:11:50.637Z,7.20
2022-10-21T12:14:31.299Z,6.60
2022-10-21T12:17:07.057Z,2.40
2022-10-21T12:19:37.589Z,4.30
2022-10-21T12:22:06.598Z,8.63
2022-10-21T12:24:53.568Z,7.03
2022-10-21T12:27:33.579Z,4.60
2022-10-21T12:30:13.981Z,8.77
2022-10-21T12:32:55.614Z,8.33
2022-10-21T12:35:47.399Z,2.70
2022-10-21T12:38:40.607Z,1.70
2022-10-21T12:41:35.578Z,3.43
2022-10-21T12:44:17.797Z,1.30
2022-10-21T12:46:50.097Z,2.37
2022-10-21T12:49:27.281Z,3.03
2022-10-21T12:52:10.360Z,4.43
2022-10-21T12:54:54.210Z,3.40
2022-10-21T12:57:33.211Z,4.77
2022-10-21T13:01:00.321Z,3.87
2022-10-21T13:03:57.141Z,2.20
2022-10-21T13:06:53.427Z,3.60
2022-10-21T13:09:43.357Z,9.00
2022-10-21T13:12:31.476Z,4.30
2022-10-21T13:15:03.073Z,3.53
2022-10-21T13:17:50.917Z,3.80
2022-10-21T13:20:49.425Z,5.87
2022-10-21T13:23:41.752Z,6.43
2022-10-21T13:26:31.262Z,3.20
2022-10-21T13:29:16.608Z,5.00
2022-10-21T13:31:45.555Z,13.20
2022-10-21T13:34:30.232Z,2.57
2022-10-21T13:36:59.705Z,4.23
2022-10-21T13:39:34.736Z,2.97
2022-10-21T13:42:16.742Z,7.00
2022-10-21T13:44:58.476Z,5.87
2022-10-21T13:47:31.336Z,2.70
2022-10-21T13:50:15.498Z,4.70
2022-10-21T13:52:45.640Z,5.40
2022-10-21T13:55:22.186Z,5.47
2022-10-21T13:57:53.498Z,3.60
2022-10-21T14:00:27.914Z,3.20
2022-10-21T14:03:03.264Z,11.53
2022-10-21T14:05:40.042Z,3.00
2022-10-21T14:08:23.319Z,9.63
2022-10-21T14:10:53.354Z,2.43
2022-10-21T14:13:30.158Z,7.93
2022-10-21T14:16:01.871Z,3.53
2022-10-21T14:18:37.209Z,8.80
2022-10-21T14:21:09.549Z,4.70
2022-10-21T14:23:38.740Z,8.90
2022-10-21T14:26:10.403Z,12.10
2022-10-21T14:28:40.066Z,11.03
2022-10-21T14:31:14.386Z,6.00
2022-10-21T14:33:47.100Z,4.53
2022-10-21T14:36:21.211Z,16.43
2022-10-21T14:39:06.641Z,6.13
2022-10-21T14:41:39.479Z,6.80
2022-10-21T14:44:15.231Z,3.40
2022-10-21T14:46:49.854Z,4.00
2022-10-21T14:49:28.832Z,17.97
2022-10-21T14:52:04.124Z,8.43
2022-10-21T14:54:43.510Z,5.20
2022-10-21T14:57:36.528Z,4.43
2022-10-21T15:00:10.937Z,3.30
2022-10-21T15:02:41.621Z,9.40
2022-10-21T15:05:49.280Z,4.23
2022-10-21T15:08:32.343Z,4.13
2022-10-21T15:11:23.717Z,4.83
2022-10-21T15:14:28.792Z,3.27
2022-10-21T15:17:00.395Z,7.60
2022-10-21T15:19:43.447Z,11.97
2022-10-21T15:22:27.138Z,9.53
2022-10-21T15:25:06.726Z,8.60
2022-10-21T15:27:42.916Z,8.67
2022-10-21T15:30:20.029Z,6.70
2022-10-21T15:32:49.965Z,7.37
2022-10-21T15:35:24.693Z,4.33
2022-10-21T15:37:55.350Z,7.40
2022-10-21T15:40:24.407Z,6.27
2022-10-21T15:42:53.044Z,11.80
2022-10-21T15:45:23.818Z,14.37
2022-10-21T15:47:53.533Z,12.68
2022-10-21T15:50:27.465Z,9.33
2022-10-21T15:52:56.820Z,5.40
2022-10-21T15:55:26.308Z,13.73
2022-10-21T15:57:58.048Z,12.23
2022-10-21T16:00:26.806Z,19.90
2022-10-21T16:02:55.409Z,6.17
2022-10-21T16:05:25.498Z,5.40
2022-10-21T16:07:54.545Z,8.87
2022-10-21T16:10:30.300Z,9.83
2022-10-21T16:12:59.383Z,9.57
2022-10-21T16:15:28.672Z,9.70
2022-10-21T16:18:00.177Z,7.70
2022-10-21T16:20:33.652Z,10.27
2022-10-21T16:23:03.244Z,10.13
2022-10-21T16:25:32.167Z,18.77
2022-10-21T16:28:01.599Z,7.23
2022-10-21T16:30:35.321Z,26.57
2022-10-21T16:33:05.268Z,8.33
2022-10-21T16:35:35.456Z,9.03
2022-10-21T16:38:04.042Z,11.80
2022-10-21T16:40:36.067Z,16.20
2022-10-21T16:43:04.621Z,29.43
2022-10-21T16:45:34.558Z,5.30
2022-10-21T16:48:06.364Z,13.27
2022-10-21T16:50:41.950Z,9.80
2022-10-21T16:53:16.733Z,7.00
2022-10-21T16:55:45.507Z,11.83
2022-10-21T16:58:15.218Z,15.83
2022-10-21T17:00:44.953Z,10.83
2022-10-21T17:03:13.837Z,5.93
2022-10-21T17:05:43.750Z,13.90
2022-10-21T17:08:12.306Z,6.20
2022-10-21T17:10:41.359Z,6.57
2022-10-21T17:13:11.142Z,7.30
2022-10-21T17:15:40.054Z,7.70
2022-10-21T17:18:11.814Z,7.23
2022-10-21T17:20:44.875Z,6.13
2022-10-21T17:23:13.434Z,16.40
2022-10-21T17:25:42.060Z,11.67
2022-10-21T17:28:10.610Z,5.33
2022-10-21T17:30:39.187Z,7.60
2022-10-21T17:33:10.580Z,14.60
2022-10-21T17:35:44.264Z,7.70
2022-10-21T17:38:15.047Z,5.50
2022-10-21T17:40:43.610Z,23.77
2022-10-21T17:43:12.103Z,3.70
2022-10-21T17:45:40.664Z,9.30
2022-10-21T17:48:09.960Z,14.03
2022-10-21T17:50:38.740Z,6.23
2022-10-21T17:53:09.396Z,4.50
2022-10-21T17:55:37.842Z,9.23
2022-10-21T17:58:06.435Z,3.73
2022-10-21T18:00:39.945Z,23.00
2022-10-21T18:03:10.906Z,5.50
2022-10-21T18:05:42.764Z,6.67
2022-10-21T18:08:13.877Z,26.53
2022-10-21T18:10:42.508Z,19.93
2022-10-21T18:13:10.989Z,17.53
2022-10-21T18:15:39.458Z,8.40
2022-10-21T18:18:07.966Z,13.03
2022-10-21T18:20:38.146Z,11.20
2022-10-21T18:23:06.643Z,16.73
2022-10-21T18:25:39.188Z,12.40
2022-10-21T18:28:08.315Z,7.90
2022-10-21T18:30:42.751Z,10.53
2022-10-21T18:33:11.797Z,10.40
2022-10-21T18:35:40.448Z,15.60
2022-10-21T18:38:09.315Z,8.83
2022-10-21T18:40:43.778Z,9.23
2022-10-21T18:43:20.819Z,15.40
2022-10-21T18:45:49.405Z,9.33
2022-10-21T18:48:17.872Z,9.87
2022-10-21T18:50:46.944Z,13.70
2022-10-21T18:53:15.568Z,12.03
2022-10-21T18:55:46.301Z,7.10
2022-10-21T18:58:14.891Z,10.37
2022-10-21T19:00:43.328Z,18.07
2022-10-21T19:03:11.735Z,20.90
2022-10-21T19:05:42.108Z,11.93
2022-10-21T19:08:10.540Z,13.83
2022-10-21T19:10:38.984Z,32.10
2022-10-21T19:13:08.843Z,9.00
2022-10-21T19:15:37.724Z,7.53
2022-10-21T19:18:06.239Z,18.63
2022-10-21T19:20:34.654Z,17.40
2022-10-21T19:23:03.178Z,12.40
2022-10-21T19:25:33.379Z,14.57
2022-10-21T19:28:18.697Z,10.40
2022-10-21T19:30:48.490Z,13.60
2022-10-21T19:33:17.088Z,12.20
2022-10-21T19:35:45.521Z,12.43
2022-10-21T19:38:20.837Z,25.40
2022-10-21T19:41:01.098Z,8.30
2022-10-21T19:43:30.129Z,11.83
2022-10-21T19:46:04.562Z,16.00
2022-10-21T19:48:34.098Z,12.83
2022-10-21T19:51:02.663Z,18.87
2022-10-21T19:53:33.732Z,16.53
2022-10-21T19:56:05.910Z,14.57
2022-10-21T19:58:35.749Z,18.50
2022-10-21T20:01:10.300Z,13.63
2022-10-21T20:03:39.476Z,14.13
2022-10-21T20:06:08.603Z,14.13
2022-10-21T20:08:40.054Z,29.20
2022-10-21T20:11:11.717Z,6.83
2022-10-21T20:13:40.802Z,25.53
2022-10-21T20:16:17.301Z,15.10
2022-10-21T20:18:46.141Z,18.77
2022-10-21T20:21:15.163Z,10.23
2022-10-21T20:23:44.338Z,27.87
2022-10-21T20:26:13.471Z,11.43
2022-10-21T20:28:41.946Z,12.53
2022-10-21T20:31:14.768Z,14.23
2022-10-21T20:33:45.619Z,65.00
2022-10-21T20:36:18.313Z,30.83
2022-10-21T20:38:49.149Z,17.80
2022-10-21T20:41:22.593Z,8.63
2022-10-21T20:43:54.112Z,18.50
2022-10-21T20:46:26.268Z,25.27
2022-10-21T20:48:56.307Z,17.43
2022-10-21T20:51:27.575Z,19.30
2022-10-21T20:53:59.727Z,23.13
2022-10-21T20:56:29.989Z,19.37
2022-10-21T20:58:59.425Z,25.37
2022-10-21T21:01:32.514Z,22.03
2022-10-21T21:04:04.840Z,33.07
2022-10-21T21:06:38.728Z,32.07
2022-10-21T21:09:33.191Z,18.50
2022-10-21T21:11:56.677Z,32.07
2022-10-21T21:14:25.132Z,18.30
2022-10-21T21:16:55.722Z,18.50
2022-10-21T21:19:24.315Z,14.00
2022-10-21T21:21:53.299Z,27.13
2022-10-21T21:24:21.844Z,25.20
2022-10-21T21:26:50.376Z,17.93
2022-10-21T21:29:19.306Z,9.70
2022-10-21T21:31:47.872Z,23.30
2022-10-21T21:34:20.710Z,11.23
2022-10-21T21:36:49.409Z,8.83
2022-10-21T21:39:17.826Z,9.00
2022-10-21T21:41:46.519Z,14.87
2022-10-21T21:44:15.556Z,21.70
2022-10-21T21:46:44.038Z,16.90
2022-10-21T21:49:12.530Z,13.33
2022-10-21T21:51:42.473Z,15.40
2022-10-21T21:54:10.897Z,9.50
2022-10-21T21:56:39.340Z,24.53
2022-10-21T21:59:08.421Z,17.10
2022-10-21T22:01:37.538Z,23.03
2022-10-21T22:04:06.107Z,13.50
2022-10-21T22:06:39.067Z,24.30
2022-10-21T22:09:11.802Z,20.23
2022-10-21T22:11:40.839Z,15.53
2022-10-21T22:14:09.386Z,18.73
2022-10-21T22:16:38.058Z,12.17
2022-10-21T22:19:06.666Z,7.50
2022-10-21T22:21:35.154Z,17.40
2022-10-21T22:24:04.227Z,12.50
2022-10-21T22:26:34.058Z,25.87
2022-10-21T22:29:02.576Z,23.00
2022-10-21T22:31:31.201Z,25.13
2022-10-21T22:34:02.811Z,20.33
2022-10-21T22:36:33.524Z,17.30
2022-10-21T22:39:03.554Z,12.10
2022-10-21T22:41:33.410Z,18.90
2022-10-21T22:44:01.907Z,22.53
2022-10-21T22:46:34.619Z,17.80
2022-10-21T22:49:05.116Z,7.60
2022-10-21T22:51:34.338Z,13.70
2022-10-21T22:54:02.805Z,15.77
2022-10-21T22:56:32.111Z,29.27
2022-10-21T22:59:01.988Z,14.37
2022-10-21T23:01:31.640Z,16.33
2022-10-21T23:04:02.843Z,15.23
2022-10-21T23:06:31.563Z,24.53
2022-10-21T23:09:00.663Z,17.60
2022-10-21T23:11:30.067Z,11.67
2022-10-21T23:14:03.368Z,14.07
2022-10-21T23:16:38.685Z,7.53
2022-10-21T23:19:08.844Z,16.33
2022-10-21T23:21:38.337Z,11.27
2022-10-21T23:24:07.959Z,9.90
2022-10-21T23:26:36.809Z,20.37
2022-10-21T23:29:05.980Z,12.23
2022-10-21T23:31:34.648Z,13.13
2022-10-21T23:34:06.043Z,8.90
2022-10-21T23:36:36.377Z,19.03
2022-10-21T23:39:05.749Z,11.13
2022-10-21T23:41:34.374Z,8.30
2022-10-21T23:44:02.805Z,13.53
2022-10-21T23:46:31.399Z,9.87
2022-10-21T23:48:59.855Z,10.53
2022-10-21T23:51:29.667Z,8.93
2022-10-21T23:53:58.148Z,9.97
2022-10-21T23:56:26.747Z,11.10
2022-10-21T23:58:55.669Z,16.03
